Time,TemperatureF,DewpointF,PressureIn,WindDirection,WindDirectionDegrees,WindSpeedMPH,WindSpeedGustMPH,Humidity,HourlyPrecipIn,Conditions,Clouds,dailyrainin,SolarRadiationWatts/m^2,SoftwareType,DateUTC
2013-09-20 00:02:00,50.9,49.0,30.11,SSW,199,0.0,0.0,94,0.00,,,0.00,0,weatherlink.com 1.10,2013-09-20 04:02:00,
2013-09-20 00:17:00,50.7,49.0,30.11,SSW,199,0.0,0.0,95,0.00,,,0.00,0,weatherlink.com 1.10,2013-09-20 04:17:00,
2013-09-20 00:32:00,50.7,49.0,30.11,SSW,199,0.0,0.0,95,0.00,,,0.00,0,weatherlink.com 1.10,2013-09-20 04:32:00,
2013-09-20 00:47:00,50.5,49.0,30.11,SSW,199,0.0,0.0,95,0.00,,,0.00,0,weatherlink.com 1.10,2013-09-20 04:47:00,
2013-09-20 01:02:00,50.5,49.0,30.11,SSW,199,0.0,0.0,95,0.00,,,0.00,0,weatherlink.com 1.10,2013-09-20 05:02:00,
2013-09-20 01:17:00,50.5,49.0,30.11,SSW,199,0.0,0.0,96,0.00,,,0.00,0,weatherlink.com 1.10,2013-09-20 05:17:00,
2013-09-20 01:32:00,50.6,50.0,30.11,SSW,199,0.0,0.0,96,0.01,,,0.01,0,weatherlink.com 1.10,2013-09-20 05:32:00,
2013-09-20 01:47:00,50.9,50.0,30.11,SSW,199,0.0,0.0,96,0.01,,,0.01,0,weatherlink.com 1.10,2013-09-20 05:47:00,
2013-09-20 02:02:00,51.2,50.0,30.11,SSW,199,0.0,0.0,96,0.01,,,0.01,0,weatherlink.com 1.10,2013-09-20 06:02:00,
2013-09-20 02:17:00,51.2,50.0,30.11,SSW,199,0.0,0.0,96,0.01,,,0.01,0,weatherlink.com 1.10,2013-09-20 06:17:00,
2013-09-20 02:33:00,50.9,50.0,30.11,SSW,199,0.0,0.0,96,0.00,,,0.01,0,weatherlink.com 1.10,2013-09-20 06:33:00,
2013-09-20 02:48:00,50.7,50.0,30.11,SSW,199,0.0,0.0,96,0.00,,,0.01,0,weatherlink.com 1.10,2013-09-20 06:48:00,
2013-09-20 03:03:00,50.6,50.0,30.11,SSW,199,0.0,0.0,96,0.00,,,0.01,0,weatherlink.com 1.10,2013-09-20 07:03:00,
2013-09-20 03:18:00,50.6,50.0,30.11,SSW,199,0.0,0.0,96,0.00,,,0.01,0,weatherlink.com 1.10,2013-09-20 07:18:00,
2013-09-20 03:33:00,50.5,49.0,30.11,SSW,199,0.0,0.0,96,0.00,,,0.01,0,weatherlink.com 1.10,2013-09-20 07:33:00,
2013-09-20 03:48:00,50.4,49.0,30.11,SSW,199,0.0,0.0,96,0.00,,,0.01,0,weatherlink.com 1.10,2013-09-20 07:48:00,
2013-09-20 04:04:00,50.1,49.0,30.10,SSW,199,0.0,0.0,96,0.00,,,0.01,0,weatherlink.com 1.10,2013-09-20 08:04:00,
2013-09-20 04:18:00,50.0,49.0,30.10,SSW,199,0.0,0.0,96,0.00,,,0.01,0,weatherlink.com 1.10,2013-09-20 08:18:00,
2013-09-20 04:33:00,49.8,49.0,30.10,SSW,199,0.0,0.0,96,0.00,,,0.01,0,weatherlink.com 1.10,2013-09-20 08:33:00,
2013-09-20 04:48:00,49.7,49.0,30.10,SSW,199,0.0,0.0,96,0.00,,,0.01,0,weatherlink.com 1.10,2013-09-20 08:48:00,
2013-09-20 05:03:00,49.8,49.0,30.10,SSW,199,0.0,0.0,96,0.00,,,0.01,0,weatherlink.com 1.10,2013-09-20 09:03:00,
2013-09-20 05:18:00,49.5,48.0,30.11,SSW,199,0.0,0.0,96,0.00,,,0.01,0,weatherlink.com 1.10,2013-09-20 09:18:00,
2013-09-20 05:33:00,49.4,48.0,30.11,SSW,199,0.0,0.0,96,0.00,,,0.01,0,weatherlink.com 1.10,2013-09-20 09:33:00,
2013-09-20 05:48:00,49.4,48.0,30.11,SSW,199,0.0,0.0,96,0.00,,,0.01,0,weatherlink.com 1.10,2013-09-20 09:48:00,
2013-09-20 06:03:00,49.6,49.0,30.11,SSW,199,0.0,2.0,97,0.00,,,0.01,0,weatherlink.com 1.10,2013-09-20 10:03:00,
2013-09-20 06:18:00,49.9,49.0,30.12,SSW,194,1.0,2.0,97,0.00,,,0.01,0,weatherlink.com 1.10,2013-09-20 10:18:00,
2013-09-20 06:33:00,50.0,49.0,30.13,NE,56,2.0,4.0,97,0.00,,,0.01,0,weatherlink.com 1.10,2013-09-20 10:33:00,
2013-09-20 06:48:00,50.0,49.0,30.13,NE,56,0.0,0.0,97,0.00,,,0.01,5,weatherlink.com 1.10,2013-09-20 10:48:00,
2013-09-20 07:03:00,50.0,49.0,30.14,NE,56,0.0,0.0,97,0.00,,,0.01,12,weatherlink.com 1.10,2013-09-20 11:03:00,
2013-09-20 07:18:00,50.1,49.0,30.14,NE,56,0.0,0.0,97,0.00,,,0.01,25,weatherlink.com 1.10,2013-09-20 11:18:00,
2013-09-20 07:33:00,50.1,49.0,30.14,NE,56,0.0,3.0,97,0.00,,,0.01,40,weatherlink.com 1.10,2013-09-20 11:33:00,
2013-09-20 07:48:00,50.1,49.0,30.13,NE,56,0.0,0.0,97,0.00,,,0.01,40,weatherlink.com 1.10,2013-09-20 11:48:00,
2013-09-20 08:03:00,50.2,49.0,30.13,NE,56,0.0,0.0,97,0.00,,,0.01,60,weatherlink.com 1.10,2013-09-20 12:03:00,
2013-09-20 08:18:00,50.2,49.0,30.13,NE,56,0.0,0.0,97,0.00,,,0.01,81,weatherlink.com 1.10,2013-09-20 12:18:00,
2013-09-20 08:33:00,50.7,50.0,30.13,NE,56,0.0,2.0,97,0.00,,,0.01,120,weatherlink.com 1.10,2013-09-20 12:33:00,
2013-09-20 08:48:00,51.0,50.0,30.13,NE,56,0.0,0.0,97,0.00,,,0.01,128,weatherlink.com 1.10,2013-09-20 12:48:00,
2013-09-20 09:03:00,51.3,51.0,30.14,NE,56,0.0,0.0,97,0.00,,,0.01,181,weatherlink.com 1.10,2013-09-20 13:03:00,
2013-09-20 09:18:00,51.8,51.0,30.13,NE,56,0.0,0.0,97,0.00,,,0.01,183,weatherlink.com 1.10,2013-09-20 13:18:00,
2013-09-20 09:33:00,52.1,51.0,30.13,NE,56,0.0,0.0,97,0.00,,,0.01,213,weatherlink.com 1.10,2013-09-20 13:33:00,
2013-09-20 09:48:00,52.5,52.0,30.13,NE,49,4.0,4.0,97,0.00,,,0.01,179,weatherlink.com 1.10,2013-09-20 13:48:00,
2013-09-20 10:03:00,53.1,52.0,30.14,NE,52,4.0,5.0,97,0.00,,,0.01,329,weatherlink.com 1.10,2013-09-20 14:03:00,
2013-09-20 10:18:00,54.5,54.0,30.14,NE,35,5.0,9.0,97,0.01,,,0.02,552,weatherlink.com 1.10,2013-09-20 14:18:00,
2013-09-20 10:33:00,55.7,55.0,30.14,NNE,13,5.0,9.0,97,0.01,,,0.02,571,weatherlink.com 1.10,2013-09-20 14:33:00,
2013-09-20 10:48:00,57.1,56.0,30.12,NE,53,3.0,6.0,97,0.01,,,0.02,605,weatherlink.com 1.10,2013-09-20 14:48:00,
2013-09-20 11:04:00,59.3,58.0,30.12,NE,49,0.0,4.0,96,0.01,,,0.02,629,weatherlink.com 1.10,2013-09-20 15:04:00,
2013-09-20 11:20:00,61.9,59.0,30.11,NE,51,0.0,5.0,91,0.00,,,0.02,649,weatherlink.com 1.10,2013-09-20 15:20:00,
2013-09-20 11:34:00,63.6,59.0,30.11,NE,50,2.0,4.0,84,0.00,,,0.02,664,weatherlink.com 1.10,2013-09-20 15:34:00,
2013-09-20 11:49:00,65.5,58.0,30.11,NE,51,0.0,3.0,76,0.00,,,0.02,666,weatherlink.com 1.10,2013-09-20 15:49:00,
2013-09-20 12:04:00,67.2,58.0,30.10,NE,51,0.0,0.0,73,0.00,,,0.02,693,weatherlink.com 1.10,2013-09-20 16:04:00,
2013-09-20 12:19:00,68.7,59.0,30.09,NE,51,0.0,2.0,72,0.00,,,0.02,710,weatherlink.com 1.10,2013-09-20 16:19:00,
2013-09-20 12:34:00,71.3,61.0,30.08,NE,51,0.0,2.0,70,0.00,,,0.02,719,weatherlink.com 1.10,2013-09-20 16:34:00,
2013-09-20 12:49:00,72.4,61.0,30.07,SE,144,1.0,3.0,68,0.00,,,0.02,700,weatherlink.com 1.10,2013-09-20 16:49:00,
2013-09-20 13:04:00,73.9,62.0,30.06,SSW,194,4.0,5.0,67,0.00,,,0.02,703,weatherlink.com 1.10,2013-09-20 17:04:00,
2013-09-20 13:19:00,75.5,63.0,30.05,South,179,3.0,5.0,65,0.00,,,0.02,679,weatherlink.com 1.10,2013-09-20 17:19:00,
2013-09-20 13:34:00,76.4,63.0,30.05,WSW,250,1.0,8.0,64,0.00,,,0.02,671,weatherlink.com 1.10,2013-09-20 17:34:00,
2013-09-20 13:49:00,77.2,63.0,30.04,South,187,4.0,9.0,61,0.00,,,0.02,664,weatherlink.com 1.10,2013-09-20 17:49:00,
2013-09-20 14:04:00,77.5,62.0,30.04,SSW,213,0.0,6.0,59,0.00,,,0.02,649,weatherlink.com 1.10,2013-09-20 18:04:00,
2013-09-20 14:19:00,78.5,60.0,30.03,SW,220,4.0,6.0,54,0.00,,,0.02,633,weatherlink.com 1.10,2013-09-20 18:19:00,
2013-09-20 14:34:00,79.3,58.0,30.03,SW,225,3.0,8.0,49,0.00,,,0.02,619,weatherlink.com 1.10,2013-09-20 18:34:00,
2013-09-20 14:49:00,79.6,59.0,30.02,WSW,242,0.0,7.0,50,0.00,,,0.02,591,weatherlink.com 1.10,2013-09-20 18:49:00,
2013-09-20 15:04:00,79.8,59.0,30.02,SW,227,5.0,7.0,49,0.00,,,0.02,563,weatherlink.com 1.10,2013-09-20 19:04:00,
2013-09-20 15:20:00,79.8,59.0,30.02,SSW,209,1.0,10.0,50,0.00,,,0.02,534,weatherlink.com 1.10,2013-09-20 19:20:00,
2013-09-20 15:35:00,79.7,59.0,30.01,SW,228,2.0,8.0,50,0.00,,,0.02,494,weatherlink.com 1.10,2013-09-20 19:35:00,
2013-09-20 15:50:00,79.7,57.0,30.01,SSW,210,4.0,8.0,46,0.00,,,0.02,466,weatherlink.com 1.10,2013-09-20 19:50:00,
2013-09-20 16:05:00,79.4,56.0,30.01,SSW,209,5.0,7.0,44,0.00,,,0.02,434,weatherlink.com 1.10,2013-09-20 20:05:00,
2013-09-20 16:20:00,79.2,57.0,30.01,SSW,194,4.0,8.0,46,0.00,,,0.02,385,weatherlink.com 1.10,2013-09-20 20:20:00,
2013-09-20 16:35:00,79.3,60.0,30.01,SSW,203,0.0,4.0,51,0.00,,,0.02,346,weatherlink.com 1.10,2013-09-20 20:35:00,
2013-09-20 16:50:00,79.0,61.0,30.01,SSW,213,4.0,8.0,55,0.00,,,0.02,301,weatherlink.com 1.10,2013-09-20 20:50:00,
2013-09-20 17:05:00,78.4,62.0,30.01,WSW,254,4.0,5.0,57,0.00,,,0.02,62,weatherlink.com 1.10,2013-09-20 21:05:00,
2013-09-20 17:20:00,76.8,60.0,30.01,SSW,211,4.0,9.0,57,0.00,,,0.02,54,weatherlink.com 1.10,2013-09-20 21:20:00,
2013-09-20 17:35:00,75.2,60.0,30.01,SW,222,0.0,6.0,60,0.00,,,0.02,32,weatherlink.com 1.10,2013-09-20 21:35:00,
2013-09-20 17:50:00,74.2,60.0,30.01,SW,214,0.0,3.0,62,0.00,,,0.02,26,weatherlink.com 1.10,2013-09-20 21:50:00,
2013-09-20 18:05:00,72.9,61.0,30.01,SW,214,0.0,0.0,67,0.00,,,0.02,23,weatherlink.com 1.10,2013-09-20 22:05:00,
2013-09-20 18:20:00,70.2,62.0,30.01,SW,214,0.0,0.0,76,0.00,,,0.02,16,weatherlink.com 1.10,2013-09-20 22:20:00,
2013-09-20 18:37:00,67.6,61.0,30.01,SW,214,0.0,0.0,79,0.00,,,0.02,9,weatherlink.com 1.10,2013-09-20 22:37:00,
2013-09-20 18:50:00,66.6,60.0,30.01,SW,214,0.0,0.0,80,0.00,,,0.02,0,weatherlink.com 1.10,2013-09-20 22:50:00,
2013-09-20 19:05:00,64.6,59.0,30.01,SW,214,0.0,0.0,82,0.00,,,0.02,0,weatherlink.com 1.10,2013-09-20 23:05:00,
2013-09-20 19:20:00,63.2,58.0,30.01,SW,214,0.0,0.0,82,0.00,,,0.02,0,weatherlink.com 1.10,2013-09-20 23:20:00,
2013-09-20 19:35:00,61.8,57.0,30.02,SW,214,0.0,0.0,84,0.00,,,0.02,0,weatherlink.com 1.10,2013-09-20 23:35:00,
2013-09-20 19:50:00,60.3,57.0,30.02,SW,214,0.0,0.0,87,0.00,,,0.02,0,weatherlink.com 1.10,2013-09-20 23:50:00,
2013-09-20 20:05:00,59.2,55.0,30.02,SW,214,0.0,0.0,87,0.00,,,0.02,0,weatherlink.com 1.10,2013-09-21 00:05:00,
2013-09-20 20:20:00,58.1,55.0,30.02,SW,214,0.0,0.0,89,0.00,,,0.02,0,weatherlink.com 1.10,2013-09-21 00:20:00,
2013-09-20 20:35:00,57.2,54.0,30.02,SW,214,0.0,0.0,90,0.00,,,0.02,0,weatherlink.com 1.10,2013-09-21 00:35:00,
2013-09-20 20:50:00,56.5,54.0,30.03,SW,214,0.0,0.0,90,0.00,,,0.02,0,weatherlink.com 1.10,2013-09-21 00:50:00,
2013-09-20 21:05:00,55.9,53.0,30.03,SW,214,0.0,0.0,91,0.00,,,0.02,0,weatherlink.com 1.10,2013-09-21 01:05:00,
2013-09-20 21:20:00,55.3,53.0,30.02,SW,214,0.0,0.0,92,0.00,,,0.02,0,weatherlink.com 1.10,2013-09-21 01:20:00,
2013-09-20 21:35:00,54.7,53.0,30.03,SW,214,0.0,0.0,92,0.00,,,0.02,0,weatherlink.com 1.10,2013-09-21 01:35:00,
2013-09-20 21:50:00,54.3,52.0,30.03,SW,214,0.0,0.0,92,0.00,,,0.02,0,weatherlink.com 1.10,2013-09-21 01:50:00,
2013-09-20 22:05:00,54.0,52.0,30.03,SW,214,0.0,0.0,93,0.00,,,0.02,0,weatherlink.com 1.10,2013-09-21 02:05:00,
2013-09-20 22:20:00,53.6,52.0,30.02,SW,214,0.0,0.0,93,0.00,,,0.02,0,weatherlink.com 1.10,2013-09-21 02:20:00,
2013-09-20 22:35:00,53.2,52.0,30.02,SW,214,0.0,0.0,94,0.00,,,0.02,0,weatherlink.com 1.10,2013-09-21 02:35:00,
2013-09-20 22:50:00,52.9,51.0,30.02,SW,214,0.0,0.0,94,0.00,,,0.02,0,weatherlink.com 1.10,2013-09-21 02:50:00,
2013-09-20 23:05:00,52.5,51.0,30.03,SW,214,0.0,0.0,94,0.00,,,0.02,0,weatherlink.com 1.10,2013-09-21 03:05:00,
2013-09-20 23:20:00,52.2,51.0,30.03,SW,214,0.0,0.0,94,0.00,,,0.02,0,weatherlink.com 1.10,2013-09-21 03:20:00,
2013-09-20 23:35:00,51.8,50.0,30.04,SW,214,0.0,0.0,94,0.00,,,0.02,0,weatherlink.com 1.10,2013-09-21 03:35:00,
2013-09-20 23:50:00,51.5,50.0,30.03,SW,214,0.0,0.0,94,0.00,,,0.02,0,weatherlink.com 1.10,2013-09-21 03:50:00,